sensor_id;sensor_type;location;lat;lon;timestamp;pressure;altitude;pressure_sealevel;temperature;humidity
11339;BME280;5724;42.684;23.252;2023-08-06T00:00:06;93231.84;;;18.51;100.00
11339;BME280;5724;42.684;23.252;2023-08-06T00:02:32;93235.06;;;18.49;100.00
11339;BME280;5724;42.684;23.252;2023-08-06T00:04:57;93265.16;;;18.47;100.00
11339;BME280;5724;42.684;23.252;2023-08-06T00:07:23;93285.53;;;18.53;100.00
11339;BME280;5724;42.684;23.252;2023-08-06T00:09:48;93283.63;;;18.67;100.00
11339;BME280;5724;42.684;23.252;2023-08-06T00:12:13;93281.03;;;18.59;100.00
11339;BME280;5724;42.684;23.252;2023-08-06T00:14:39;93288.09;;;18.60;100.00
11339;BME280;5724;42.684;23.252;2023-08-06T00:17:04;93280.09;;;18.66;100.00
11339;BME280;5724;42.684;23.252;2023-08-06T00:19:31;93262.53;;;18.73;100.00
11339;BME280;5724;42.684;23.252;2023-08-06T00:21:57;93269.00;;;18.82;100.00
11339;BME280;5724;42.684;23.252;2023-08-06T00:24:22;93285.16;;;18.84;100.00
11339;BME280;5724;42.684;23.252;2023-08-06T00:26:47;93287.38;;;18.89;100.00
11339;BME280;5724;42.684;23.252;2023-08-06T00:29:13;93270.53;;;18.83;100.00
11339;BME280;5724;42.684;23.252;2023-08-06T00:31:38;93264.75;;;18.78;100.00
11339;BME280;5724;42.684;23.252;2023-08-06T00:34:04;93251.22;;;18.51;100.00
11339;BME280;5724;42.684;23.252;2023-08-06T00:36:29;93253.69;;;18.62;100.00
11339;BME280;5724;42.684;23.252;2023-08-06T00:38:54;93248.44;;;18.51;100.00
11339;BME280;5724;42.684;23.252;2023-08-06T00:41:21;93249.72;;;18.34;100.00
11339;BME280;5724;42.684;23.252;2023-08-06T00:43:46;93268.00;;;18.44;100.00
11339;BME280;5724;42.684;23.252;2023-08-06T00:46:12;93262.06;;;18.29;100.00
11339;BME280;5724;42.684;23.252;2023-08-06T00:48:37;93258.00;;;18.34;100.00
11339;BME280;5724;42.684;23.252;2023-08-06T00:51:03;93248.84;;;18.37;100.00
11339;BME280;5724;42.684;23.252;2023-08-06T00:53:28;93248.28;;;18.42;100.00
11339;BME280;5724;42.684;23.252;2023-08-06T00:55:54;93249.94;;;18.39;100.00
11339;BME280;5724;42.684;23.252;2023-08-06T00:58:20;93253.66;;;18.49;100.00
11339;BME280;5724;42.684;23.252;2023-08-06T01:00:45;93251.84;;;18.42;100.00
11339;BME280;5724;42.684;23.252;2023-08-06T01:03:11;93242.28;;;18.14;100.00
11339;BME280;5724;42.684;23.252;2023-08-06T01:05:36;93241.44;;;18.17;100.00
11339;BME280;5724;42.684;23.252;2023-08-06T01:13:47;93202.72;;;18.17;100.00
11339;BME280;5724;42.684;23.252;2023-08-06T01:16:19;93223.19;;;18.20;100.00
11339;BME280;5724;42.684;23.252;2023-08-06T01:18:48;93214.91;;;18.03;100.00
11339;BME280;5724;42.684;23.252;2023-08-06T01:21:15;93210.25;;;18.00;100.00
11339;BME280;5724;42.684;23.252;2023-08-06T01:23:44;93217.94;;;17.93;100.00
11339;BME280;5724;42.684;23.252;2023-08-06T01:28:54;93212.97;;;17.88;100.00
11339;BME280;5724;42.684;23.252;2023-08-06T01:31:25;93211.47;;;17.83;100.00
11339;BME280;5724;42.684;23.252;2023-08-06T01:33:52;93211.88;;;17.65;100.00
11339;BME280;5724;42.684;23.252;2023-08-06T01:36:20;93206.16;;;17.56;100.00
11339;BME280;5724;42.684;23.252;2023-08-06T01:38:46;93195.31;;;17.65;100.00
11339;BME280;5724;42.684;23.252;2023-08-06T01:41:12;93197.66;;;17.67;100.00
11339;BME280;5724;42.684;23.252;2023-08-06T01:43:37;93180.91;;;17.58;100.00
11339;BME280;5724;42.684;23.252;2023-08-06T01:46:03;93197.59;;;17.70;100.00
11339;BME280;5724;42.684;23.252;2023-08-06T01:48:28;93198.25;;;17.74;100.00
11339;BME280;5724;42.684;23.252;2023-08-06T01:50:54;93193.44;;;17.79;100.00
11339;BME280;5724;42.684;23.252;2023-08-06T01:53:19;93203.28;;;17.80;100.00
11339;BME280;5724;42.684;23.252;2023-08-06T01:55:49;93203.97;;;17.84;100.00
11339;BME280;5724;42.684;23.252;2023-08-06T01:58:14;93188.16;;;17.68;100.00
11339;BME280;5724;42.684;23.252;2023-08-06T02:00:40;93176.00;;;17.82;100.00
11339;BME280;5724;42.684;23.252;2023-08-06T02:03:06;93173.56;;;17.84;100.00
11339;BME280;5724;42.684;23.252;2023-08-06T02:05:31;93178.59;;;17.89;100.00
11339;BME280;5724;42.684;23.252;2023-08-06T02:07:57;93175.03;;;17.88;100.00
11339;BME280;5724;42.684;23.252;2023-08-06T02:10:22;93174.88;;;17.95;100.00
11339;BME280;5724;42.684;23.252;2023-08-06T02:12:47;93171.47;;;18.04;100.00
11339;BME280;5724;42.684;23.252;2023-08-06T02:15:13;93173.38;;;18.07;100.00
11339;BME280;5724;42.684;23.252;2023-08-06T02:17:38;93190.91;;;18.17;100.00
11339;BME280;5724;42.684;23.252;2023-08-06T02:20:04;93205.66;;;18.26;100.00
11339;BME280;5724;42.684;23.252;2023-08-06T02:22:30;93202.19;;;18.22;100.00
11339;BME280;5724;42.684;23.252;2023-08-06T02:24:55;93214.63;;;18.14;100.00
11339;BME280;5724;42.684;23.252;2023-08-06T02:27:21;93212.31;;;18.13;100.00
11339;BME280;5724;42.684;23.252;2023-08-06T02:29:46;93181.28;;;18.21;100.00
11339;BME280;5724;42.684;23.252;2023-08-06T02:32:12;93172.47;;;18.26;100.00
11339;BME280;5724;42.684;23.252;2023-08-06T02:34:37;93159.59;;;18.20;100.00
11339;BME280;5724;42.684;23.252;2023-08-06T02:37:03;93190.13;;;18.16;100.00
11339;BME280;5724;42.684;23.252;2023-08-06T02:39:28;93218.72;;;18.10;100.00
11339;BME280;5724;42.684;23.252;2023-08-06T02:41:53;93226.41;;;18.02;100.00
11339;BME280;5724;42.684;23.252;2023-08-06T02:44:19;93225.63;;;18.18;100.00
11339;BME280;5724;42.684;23.252;2023-08-06T02:46:45;93210.47;;;18.22;100.00
11339;BME280;5724;42.684;23.252;2023-08-06T02:49:10;93199.78;;;18.24;100.00
11339;BME280;5724;42.684;23.252;2023-08-06T02:51:36;93199.81;;;18.08;100.00
11339;BME280;5724;42.684;23.252;2023-08-06T02:54:01;93185.84;;;18.28;100.00
11339;BME280;5724;42.684;23.252;2023-08-06T02:56:27;93157.78;;;18.13;100.00
11339;BME280;5724;42.684;23.252;2023-08-06T02:58:52;93162.31;;;18.07;100.00
11339;BME280;5724;42.684;23.252;2023-08-06T03:01:17;93175.75;;;18.21;100.00
11339;BME280;5724;42.684;23.252;2023-08-06T03:03:43;93173.59;;;18.13;100.00
11339;BME280;5724;42.684;23.252;2023-08-06T03:06:27;93131.28;;;18.16;100.00
11339;BME280;5724;42.684;23.252;2023-08-06T03:08:52;93104.56;;;17.96;100.00
11339;BME280;5724;42.684;23.252;2023-08-06T03:11:18;93141.94;;;18.01;100.00
11339;BME280;5724;42.684;23.252;2023-08-06T03:13:43;93180.63;;;18.17;100.00
11339;BME280;5724;42.684;23.252;2023-08-06T03:16:08;93170.78;;;18.16;100.00
11339;BME280;5724;42.684;23.252;2023-08-06T03:18:34;93135.59;;;18.17;100.00
11339;BME280;5724;42.684;23.252;2023-08-06T03:20:59;93117.81;;;18.18;100.00
11339;BME280;5724;42.684;23.252;2023-08-06T03:23:25;93115.78;;;18.06;100.00
11339;BME280;5724;42.684;23.252;2023-08-06T03:25:50;93165.63;;;18.31;100.00
11339;BME280;5724;42.684;23.252;2023-08-06T03:28:16;93166.34;;;18.48;100.00
11339;BME280;5724;42.684;23.252;2023-08-06T03:30:42;93154.06;;;18.49;100.00
11339;BME280;5724;42.684;23.252;2023-08-06T03:33:07;93174.16;;;18.37;100.00
11339;BME280;5724;42.684;23.252;2023-08-06T03:35:32;93181.78;;;18.33;100.00
11339;BME280;5724;42.684;23.252;2023-08-06T03:37:58;93187.59;;;18.22;100.00
11339;BME280;5724;42.684;23.252;2023-08-06T03:40:23;93188.75;;;18.08;100.00
11339;BME280;5724;42.684;23.252;2023-08-06T03:42:49;93189.63;;;18.05;100.00
11339;BME280;5724;42.684;23.252;2023-08-06T03:45:14;93192.28;;;18.09;100.00
11339;BME280;5724;42.684;23.252;2023-08-06T03:47:40;93185.09;;;18.11;100.00
11339;BME280;5724;42.684;23.252;2023-08-06T03:50:06;93204.88;;;18.26;100.00
11339;BME280;5724;42.684;23.252;2023-08-06T03:52:31;93202.56;;;18.24;100.00
11339;BME280;5724;42.684;23.252;2023-08-06T03:54:56;93204.47;;;18.40;100.00
11339;BME280;5724;42.684;23.252;2023-08-06T03:57:22;93202.41;;;18.44;100.00
11339;BME280;5724;42.684;23.252;2023-08-06T03:59:47;93202.75;;;18.46;100.00
11339;BME280;5724;42.684;23.252;2023-08-06T04:02:13;93207.31;;;18.53;100.00
11339;BME280;5724;42.684;23.252;2023-08-06T04:04:38;93204.34;;;18.60;100.00
11339;BME280;5724;42.684;23.252;2023-08-06T04:07:04;93211.09;;;18.59;100.00
11339;BME280;5724;42.684;23.252;2023-08-06T04:09:29;93208.66;;;18.61;100.00
11339;BME280;5724;42.684;23.252;2023-08-06T04:11:55;93221.44;;;18.71;100.00
11339;BME280;5724;42.684;23.252;2023-08-06T04:14:21;93220.81;;;18.80;100.00
11339;BME280;5724;42.684;23.252;2023-08-06T04:16:46;93229.41;;;18.69;100.00
11339;BME280;5724;42.684;23.252;2023-08-06T04:19:12;93217.47;;;18.72;100.00
11339;BME280;5724;42.684;23.252;2023-08-06T04:21:37;93214.91;;;18.65;100.00
11339;BME280;5724;42.684;23.252;2023-08-06T04:24:03;93210.56;;;18.64;100.00
11339;BME280;5724;42.684;23.252;2023-08-06T04:26:28;93206.16;;;18.67;100.00
11339;BME280;5724;42.684;23.252;2023-08-06T04:28:54;93213.06;;;18.75;100.00
11339;BME280;5724;42.684;23.252;2023-08-06T04:31:20;93197.31;;;18.72;100.00
11339;BME280;5724;42.684;23.252;2023-08-06T04:33:48;93197.44;;;18.23;100.00
11339;BME280;5724;42.684;23.252;2023-08-06T04:36:13;93206.09;;;18.09;100.00
11339;BME280;5724;42.684;23.252;2023-08-06T04:38:38;93207.06;;;18.02;100.00
11339;BME280;5724;42.684;23.252;2023-08-06T04:41:06;93198.78;;;18.02;100.00
11339;BME280;5724;42.684;23.252;2023-08-06T04:43:32;93184.94;;;18.02;100.00
11339;BME280;5724;42.684;23.252;2023-08-06T04:45:57;93172.19;;;17.76;100.00
11339;BME280;5724;42.684;23.252;2023-08-06T04:48:23;93168.13;;;17.80;100.00
11339;BME280;5724;42.684;23.252;2023-08-06T04:50:49;93161.13;;;17.76;100.00
11339;BME280;5724;42.684;23.252;2023-08-06T04:53:16;93159.25;;;17.89;100.00
11339;BME280;5724;42.684;23.252;2023-08-06T04:55:41;93146.13;;;17.77;100.00
11339;BME280;5724;42.684;23.252;2023-08-06T04:58:09;93144.53;;;17.92;100.00
11339;BME280;5724;42.684;23.252;2023-08-06T05:00:35;93147.31;;;17.92;100.00
11339;BME280;5724;42.684;23.252;2023-08-06T05:03:00;93130.88;;;18.01;100.00
11339;BME280;5724;42.684;23.252;2023-08-06T05:05:27;93139.06;;;18.05;100.00
11339;BME280;5724;42.684;23.252;2023-08-06T05:07:54;93148.06;;;18.09;100.00
11339;BME280;5724;42.684;23.252;2023-08-06T05:10:19;93132.91;;;18.13;100.00
11339;BME280;5724;42.684;23.252;2023-08-06T05:12:46;93146.75;;;18.13;100.00
11339;BME280;5724;42.684;23.252;2023-08-06T05:15:12;93135.16;;;18.18;100.00
11339;BME280;5724;42.684;23.252;2023-08-06T05:17:37;93156.22;;;18.28;100.00
11339;BME280;5724;42.684;23.252;2023-08-06T05:20:03;93149.16;;;18.40;100.00
11339;BME280;5724;42.684;23.252;2023-08-06T05:22:29;93151.19;;;18.52;100.00
11339;BME280;5724;42.684;23.252;2023-08-06T05:24:54;93158.34;;;18.66;100.00
11339;BME280;5724;42.684;23.252;2023-08-06T05:27:20;93161.28;;;18.88;100.00
11339;BME280;5724;42.684;23.252;2023-08-06T05:29:45;93152.31;;;18.97;100.00
11339;BME280;5724;42.684;23.252;2023-08-06T05:32:11;93161.63;;;19.03;100.00
11339;BME280;5724;42.684;23.252;2023-08-06T05:34:36;93139.59;;;18.99;100.00
11339;BME280;5724;42.684;23.252;2023-08-06T05:37:03;93154.75;;;18.95;100.00
11339;BME280;5724;42.684;23.252;2023-08-06T05:39:29;93150.66;;;18.99;100.00
11339;BME280;5724;42.684;23.252;2023-08-06T05:41:54;93135.94;;;19.15;100.00
11339;BME280;5724;42.684;23.252;2023-08-06T05:44:20;93143.03;;;19.16;100.00
11339;BME280;5724;42.684;23.252;2023-08-06T05:46:46;93148.03;;;19.21;100.00
11339;BME280;5724;42.684;23.252;2023-08-06T05:49:11;93149.81;;;19.40;100.00
11339;BME280;5724;42.684;23.252;2023-08-06T05:51:39;93150.00;;;19.59;100.00
11339;BME280;5724;42.684;23.252;2023-08-06T05:54:04;93163.00;;;19.62;100.00
11339;BME280;5724;42.684;23.252;2023-08-06T05:56:30;93157.91;;;19.60;100.00
11339;BME280;5724;42.684;23.252;2023-08-06T05:58:55;93166.28;;;19.82;100.00
11339;BME280;5724;42.684;23.252;2023-08-06T06:01:20;93169.28;;;19.75;100.00
11339;BME280;5724;42.684;23.252;2023-08-06T06:03:46;93177.59;;;19.75;97.55
11339;BME280;5724;42.684;23.252;2023-08-06T06:06:11;93180.34;;;20.00;98.38
11339;BME280;5724;42.684;23.252;2023-08-06T06:08:37;93182.69;;;19.89;98.47
11339;BME280;5724;42.684;23.252;2023-08-06T06:11:02;93178.00;;;19.99;100.00
11339;BME280;5724;42.684;23.252;2023-08-06T06:13:28;93197.16;;;20.06;98.02
11339;BME280;5724;42.684;23.252;2023-08-06T06:15:56;93195.78;;;19.89;96.01
11339;BME280;5724;42.684;23.252;2023-08-06T06:18:22;93192.47;;;19.56;96.40
11339;BME280;5724;42.684;23.252;2023-08-06T06:20:47;93205.44;;;19.71;96.00
11339;BME280;5724;42.684;23.252;2023-08-06T06:23:13;93211.97;;;19.65;97.05
11339;BME280;5724;42.684;23.252;2023-08-06T06:25:49;93204.06;;;19.38;99.40
11339;BME280;5724;42.684;23.252;2023-08-06T06:28:17;93226.13;;;19.41;99.05
11339;BME280;5724;42.684;23.252;2023-08-06T06:30:42;93218.94;;;19.31;98.80
11339;BME280;5724;42.684;23.252;2023-08-06T06:33:08;93229.34;;;19.40;99.28
11339;BME280;5724;42.684;23.252;2023-08-06T06:35:33;93213.03;;;19.29;100.00
11339;BME280;5724;42.684;23.252;2023-08-06T06:37:59;93229.13;;;19.34;100.00
11339;BME280;5724;42.684;23.252;2023-08-06T06:40:25;93243.63;;;19.38;98.97
11339;BME280;5724;42.684;23.252;2023-08-06T06:42:50;93238.09;;;19.38;98.19
11339;BME280;5724;42.684;23.252;2023-08-06T06:45:16;93248.63;;;19.31;96.77
11339;BME280;5724;42.684;23.252;2023-08-06T06:47:41;93235.97;;;19.30;96.85
11339;BME280;5724;42.684;23.252;2023-08-06T06:50:07;93248.06;;;19.49;96.06
11339;BME280;5724;42.684;23.252;2023-08-06T06:52:33;93245.22;;;19.65;96.13
11339;BME280;5724;42.684;23.252;2023-08-06T06:54:58;93233.72;;;19.79;96.49
11339;BME280;5724;42.684;23.252;2023-08-06T06:57:23;93249.22;;;19.89;94.29
11339;BME280;5724;42.684;23.252;2023-08-06T06:59:49;93255.63;;;19.86;89.49
11339;BME280;5724;42.684;23.252;2023-08-06T07:02:14;93262.84;;;19.96;89.27
11339;BME280;5724;42.684;23.252;2023-08-06T07:04:39;93269.59;;;19.95;87.25
11339;BME280;5724;42.684;23.252;2023-08-06T07:07:05;93287.25;;;20.01;86.93
11339;BME280;5724;42.684;23.252;2023-08-06T07:09:30;93278.91;;;20.14;86.96
11339;BME280;5724;42.684;23.252;2023-08-06T07:11:56;93272.59;;;20.01;87.28
11339;BME280;5724;42.684;23.252;2023-08-06T07:14:22;93276.19;;;20.36;87.51
11339;BME280;5724;42.684;23.252;2023-08-06T07:16:48;93288.38;;;20.64;85.99
11339;BME280;5724;42.684;23.252;2023-08-06T07:19:13;93285.81;;;20.70;83.42
11339;BME280;5724;42.684;23.252;2023-08-06T07:21:38;93294.44;;;20.84;81.58
11339;BME280;5724;42.684;23.252;2023-08-06T07:24:04;93293.31;;;20.82;80.40
11339;BME280;5724;42.684;23.252;2023-08-06T07:26:29;93290.19;;;21.14;80.68
11339;BME280;5724;42.684;23.252;2023-08-06T07:28:59;93292.63;;;21.12;77.50
11339;BME280;5724;42.684;23.252;2023-08-06T07:31:24;93292.38;;;21.41;79.02
11339;BME280;5724;42.684;23.252;2023-08-06T07:33:50;93281.28;;;21.41;76.99
11339;BME280;5724;42.684;23.252;2023-08-06T07:36:16;93295.75;;;21.58;77.54
11339;BME280;5724;42.684;23.252;2023-08-06T07:38:41;93294.69;;;21.65;76.64
11339;BME280;5724;42.684;23.252;2023-08-06T07:41:07;93300.22;;;21.34;77.42
11339;BME280;5724;42.684;23.252;2023-08-06T07:43:33;93280.31;;;21.35;78.10
11339;BME280;5724;42.684;23.252;2023-08-06T07:46:01;93288.50;;;21.61;77.87
11339;BME280;5724;42.684;23.252;2023-08-06T07:48:27;93277.16;;;21.46;76.94
11339;BME280;5724;42.684;23.252;2023-08-06T07:50:53;93277.88;;;21.68;76.40
11339;BME280;5724;42.684;23.252;2023-08-06T07:53:23;93270.03;;;22.07;76.13
11339;BME280;5724;42.684;23.252;2023-08-06T07:55:53;93270.34;;;22.09;74.87
11339;BME280;5724;42.684;23.252;2023-08-06T07:58:19;93280.28;;;22.28;73.41
11339;BME280;5724;42.684;23.252;2023-08-06T08:00:45;93278.41;;;22.16;72.69
11339;BME280;5724;42.684;23.252;2023-08-06T08:03:15;93280.81;;;22.05;73.69
11339;BME280;5724;42.684;23.252;2023-08-06T08:05:41;93260.06;;;21.97;74.36
11339;BME280;5724;42.684;23.252;2023-08-06T08:08:07;93257.41;;;22.24;72.61
11339;BME280;5724;42.684;23.252;2023-08-06T08:10:33;93262.41;;;22.57;72.09
11339;BME280;5724;42.684;23.252;2023-08-06T08:13:03;93265.56;;;22.87;69.51
11339;BME280;5724;42.684;23.252;2023-08-06T08:15:30;93278.13;;;23.00;70.63
11339;BME280;5724;42.684;23.252;2023-08-06T08:17:56;93259.38;;;22.92;71.05
11339;BME280;5724;42.684;23.252;2023-08-06T08:20:21;93261.78;;;22.44;74.62
11339;BME280;5724;42.684;23.252;2023-08-06T08:22:47;93263.59;;;22.28;76.53
11339;BME280;5724;42.684;23.252;2023-08-06T08:25:13;93266.38;;;22.28;77.58
11339;BME280;5724;42.684;23.252;2023-08-06T08:27:38;93252.81;;;22.40;77.55
11339;BME280;5724;42.684;23.252;2023-08-06T08:30:04;93266.28;;;22.50;72.25
11339;BME280;5724;42.684;23.252;2023-08-06T08:32:30;93273.81;;;22.22;76.34
11339;BME280;5724;42.684;23.252;2023-08-06T08:34:55;93266.28;;;22.01;77.18
11339;BME280;5724;42.684;23.252;2023-08-06T08:37:22;93280.00;;;21.95;77.83
11339;BME280;5724;42.684;23.252;2023-08-06T08:39:48;93258.81;;;21.89;75.75
11339;BME280;5724;42.684;23.252;2023-08-06T08:42:14;93259.47;;;21.93;73.99
11339;BME280;5724;42.684;23.252;2023-08-06T08:44:41;93263.28;;;22.26;71.56
11339;BME280;5724;42.684;23.252;2023-08-06T08:47:08;93253.28;;;22.56;71.32
11339;BME280;5724;42.684;23.252;2023-08-06T08:49:37;93244.19;;;22.74;68.40
11339;BME280;5724;42.684;23.252;2023-08-06T08:52:03;93243.88;;;22.81;69.82
11339;BME280;5724;42.684;23.252;2023-08-06T08:54:33;93251.94;;;22.79;68.76
11339;BME280;5724;42.684;23.252;2023-08-06T08:56:59;93256.91;;;22.84;71.01
11339;BME280;5724;42.684;23.252;2023-08-06T08:59:26;93245.97;;;22.13;73.96
11339;BME280;5724;42.684;23.252;2023-08-06T09:01:53;93243.75;;;22.08;74.51
11339;BME280;5724;42.684;23.252;2023-08-06T09:04:20;93243.63;;;22.12;76.73
11339;BME280;5724;42.684;23.252;2023-08-06T09:06:50;93237.84;;;22.06;73.79
11339;BME280;5724;42.684;23.252;2023-08-06T09:09:26;93239.50;;;22.35;70.98
11339;BME280;5724;42.684;23.252;2023-08-06T09:11:52;93239.22;;;22.42;68.97
11339;BME280;5724;42.684;23.252;2023-08-06T09:14:18;93237.69;;;22.50;68.42
11339;BME280;5724;42.684;23.252;2023-08-06T09:16:43;93243.88;;;22.54;70.34
11339;BME280;5724;42.684;23.252;2023-08-06T09:19:13;93238.31;;;22.72;70.79
11339;BME280;5724;42.684;23.252;2023-08-06T09:21:42;93214.50;;;22.62;69.42
11339;BME280;5724;42.684;23.252;2023-08-06T09:24:12;93230.94;;;22.88;66.59
11339;BME280;5724;42.684;23.252;2023-08-06T09:26:38;93230.56;;;23.31;65.38
11339;BME280;5724;42.684;23.252;2023-08-06T09:29:10;93226.66;;;23.47;62.83
11339;BME280;5724;42.684;23.252;2023-08-06T09:31:43;93230.34;;;23.53;59.30
11339;BME280;5724;42.684;23.252;2023-08-06T09:34:16;93234.31;;;23.01;60.89
11339;BME280;5724;42.684;23.252;2023-08-06T09:36:52;93226.13;;;22.88;62.93
11339;BME280;5724;42.684;23.252;2023-08-06T09:39:26;93230.75;;;22.91;62.47
11339;BME280;5724;42.684;23.252;2023-08-06T09:41:58;93210.47;;;22.81;62.78
11339;BME280;5724;42.684;23.252;2023-08-06T09:44:25;93210.78;;;22.93;62.80
11339;BME280;5724;42.684;23.252;2023-08-06T09:46:58;93229.34;;;22.96;63.35
11339;BME280;5724;42.684;23.252;2023-08-06T09:49:40;93218.50;;;23.16;63.27
11339;BME280;5724;42.684;23.252;2023-08-06T09:52:10;93222.06;;;22.62;60.56
11339;BME280;5724;42.684;23.252;2023-08-06T09:54:37;93222.25;;;22.95;61.40
11339;BME280;5724;42.684;23.252;2023-08-06T09:57:03;93212.81;;;22.92;59.62
11339;BME280;5724;42.684;23.252;2023-08-06T09:59:29;93209.38;;;23.06;60.34
11339;BME280;5724;42.684;23.252;2023-08-06T10:01:56;93227.66;;;22.71;61.48
11339;BME280;5724;42.684;23.252;2023-08-06T10:04:22;93222.22;;;23.04;62.32
11339;BME280;5724;42.684;23.252;2023-08-06T10:06:48;93230.41;;;23.26;57.48
11339;BME280;5724;42.684;23.252;2023-08-06T10:09:14;93236.41;;;23.42;56.86
11339;BME280;5724;42.684;23.252;2023-08-06T10:11:42;93240.63;;;23.89;55.55
11339;BME280;5724;42.684;23.252;2023-08-06T10:14:21;93227.38;;;23.75;55.98
11339;BME280;5724;42.684;23.252;2023-08-06T10:16:48;93245.84;;;23.63;55.98
11339;BME280;5724;42.684;23.252;2023-08-06T10:19:15;93237.66;;;23.41;56.38
11339;BME280;5724;42.684;23.252;2023-08-06T10:22:08;93226.69;;;23.29;56.25
11339;BME280;5724;42.684;23.252;2023-08-06T10:24:53;93248.63;;;23.54;57.33
11339;BME280;5724;42.684;23.252;2023-08-06T10:29:47;93243.66;;;23.58;56.92
11339;BME280;5724;42.684;23.252;2023-08-06T10:32:14;93238.25;;;23.55;58.73
11339;BME280;5724;42.684;23.252;2023-08-06T10:34:59;93242.75;;;23.52;60.26
11339;BME280;5724;42.684;23.252;2023-08-06T10:37:36;93232.09;;;23.41;61.40
11339;BME280;5724;42.684;23.252;2023-08-06T10:40:01;93242.47;;;23.41;63.02
11339;BME280;5724;42.684;23.252;2023-08-06T10:42:27;93253.00;;;22.73;65.53
11339;BME280;5724;42.684;23.252;2023-08-06T10:45:12;93252.41;;;22.87;65.27
11339;BME280;5724;42.684;23.252;2023-08-06T10:47:39;93262.28;;;22.61;66.09
11339;BME280;5724;42.684;23.252;2023-08-06T10:50:15;93256.41;;;22.59;66.16
11339;BME280;5724;42.684;23.252;2023-08-06T10:52:46;93256.44;;;22.95;65.25
11339;BME280;5724;42.684;23.252;2023-08-06T10:55:12;93267.88;;;23.25;63.21
11339;BME280;5724;42.684;23.252;2023-08-06T10:57:38;93268.63;;;23.34;62.31
11339;BME280;5724;42.684;23.252;2023-08-06T11:00:08;93270.63;;;23.61;61.02
11339;BME280;5724;42.684;23.252;2023-08-06T11:02:34;93263.50;;;23.69;59.93
11339;BME280;5724;42.684;23.252;2023-08-06T11:05:08;93295.13;;;23.48;60.82
11339;BME280;5724;42.684;23.252;2023-08-06T11:07:34;93280.91;;;23.19;62.34
11339;BME280;5724;42.684;23.252;2023-08-06T11:10:04;93283.81;;;22.78;64.48
11339;BME280;5724;42.684;23.252;2023-08-06T11:12:31;93271.69;;;22.45;66.74
11339;BME280;5724;42.684;23.252;2023-08-06T11:14:57;93283.91;;;22.47;66.32
11339;BME280;5724;42.684;23.252;2023-08-06T11:17:23;93291.59;;;22.34;66.48
11339;BME280;5724;42.684;23.252;2023-08-06T11:19:48;93300.38;;;22.23;67.40
11339;BME280;5724;42.684;23.252;2023-08-06T11:22:17;93296.63;;;22.08;70.03
11339;BME280;5724;42.684;23.252;2023-08-06T11:24:43;93294.47;;;22.12;69.14
11339;BME280;5724;42.684;23.252;2023-08-06T11:27:15;93306.22;;;22.16;69.60
11339;BME280;5724;42.684;23.252;2023-08-06T11:29:42;93298.84;;;21.91;72.46
11339;BME280;5724;42.684;23.252;2023-08-06T11:32:08;93293.16;;;21.95;72.76
11339;BME280;5724;42.684;23.252;2023-08-06T11:34:34;93289.16;;;22.05;69.39
11339;BME280;5724;42.684;23.252;2023-08-06T11:36:59;93273.81;;;22.22;69.79
11339;BME280;5724;42.684;23.252;2023-08-06T11:39:25;93269.84;;;22.51;71.13
11339;BME280;5724;42.684;23.252;2023-08-06T11:41:51;93268.78;;;22.67;68.21
11339;BME280;5724;42.684;23.252;2023-08-06T11:44:19;93270.84;;;23.03;68.87
11339;BME280;5724;42.684;23.252;2023-08-06T11:46:51;93271.28;;;23.29;64.78
11339;BME280;5724;42.684;23.252;2023-08-06T11:49:18;93277.94;;;23.40;64.18
11339;BME280;5724;42.684;23.252;2023-08-06T11:51:49;93275.09;;;23.77;63.20
11339;BME280;5724;42.684;23.252;2023-08-06T11:54:15;93267.56;;;24.02;60.63
11339;BME280;5724;42.684;23.252;2023-08-06T11:56:40;93264.63;;;24.29;58.39
11339;BME280;5724;42.684;23.252;2023-08-06T11:59:06;93269.38;;;24.14;57.63
11339;BME280;5724;42.684;23.252;2023-08-06T12:01:31;93267.38;;;23.63;59.27
11339;BME280;5724;42.684;23.252;2023-08-06T12:04:00;93253.56;;;24.11;58.40
11339;BME280;5724;42.684;23.252;2023-08-06T12:06:28;93253.09;;;24.12;58.49
11339;BME280;5724;42.684;23.252;2023-08-06T12:08:53;93265.31;;;24.24;56.75
11339;BME280;5724;42.684;23.252;2023-08-06T12:11:21;93244.78;;;24.36;56.98
11339;BME280;5724;42.684;23.252;2023-08-06T12:13:51;93254.47;;;24.17;56.60
11339;BME280;5724;42.684;23.252;2023-08-06T12:16:16;93258.75;;;24.27;56.50
11339;BME280;5724;42.684;23.252;2023-08-06T12:18:44;93254.22;;;24.39;56.90
11339;BME280;5724;42.684;23.252;2023-08-06T12:21:09;93263.66;;;24.41;55.86
11339;BME280;5724;42.684;23.252;2023-08-06T12:23:35;93253.59;;;24.02;56.26
11339;BME280;5724;42.684;23.252;2023-08-06T12:26:01;93253.75;;;24.40;55.91
11339;BME280;5724;42.684;23.252;2023-08-06T12:28:26;93251.13;;;24.61;55.49
11339;BME280;5724;42.684;23.252;2023-08-06T12:30:52;93249.53;;;24.69;54.21
11339;BME280;5724;42.684;23.252;2023-08-06T12:33:20;93253.00;;;24.64;54.81
11339;BME280;5724;42.684;23.252;2023-08-06T12:35:45;93259.88;;;24.77;53.90
11339;BME280;5724;42.684;23.252;2023-08-06T12:38:11;93260.22;;;24.94;53.86
11339;BME280;5724;42.684;23.252;2023-08-06T12:40:36;93261.25;;;25.06;53.09
11339;BME280;5724;42.684;23.252;2023-08-06T12:43:02;93257.25;;;24.98;53.83
11339;BME280;5724;42.684;23.252;2023-08-06T12:45:27;93255.94;;;24.84;53.93
11339;BME280;5724;42.684;23.252;2023-08-06T12:47:53;93251.31;;;24.81;53.47
11339;BME280;5724;42.684;23.252;2023-08-06T12:50:19;93249.91;;;24.62;54.51
11339;BME280;5724;42.684;23.252;2023-08-06T12:52:44;93235.03;;;24.32;54.96
11339;BME280;5724;42.684;23.252;2023-08-06T12:55:09;93251.97;;;24.19;55.87
11339;BME280;5724;42.684;23.252;2023-08-06T12:57:35;93249.22;;;23.77;57.10
11339;BME280;5724;42.684;23.252;2023-08-06T13:00:01;93239.47;;;23.72;58.02
11339;BME280;5724;42.684;23.252;2023-08-06T13:02:26;93245.44;;;23.89;57.17